createdAt,value
2019-01-14T00:00:06.870Z,27.9
2019-01-14T00:00:57.121Z,28
2019-01-14T00:01:46.901Z,28.2
2019-01-14T00:02:37.504Z,28.3
2019-01-14T00:03:27.590Z,28.4
2019-01-14T00:04:17.418Z,28.5
2019-01-14T00:05:07.619Z,28.6
2019-01-14T00:05:57.328Z,28.7
2019-01-14T00:06:47.634Z,28.8
2019-01-14T00:07:37.441Z,28.9
2019-01-14T00:08:27.155Z,28.9
2019-01-14T00:09:32.840Z,29
2019-01-14T00:10:07.546Z,29.1
2019-01-14T00:10:58.356Z,29.1
2019-01-14T00:11:48.153Z,29.2
2019-01-14T00:12:37.940Z,29.3
2019-01-14T00:13:27.963Z,29.3
2019-01-14T00:14:18.282Z,29.3
2019-01-14T00:15:08.385Z,29.4
2019-01-14T00:15:58.210Z,29.4
2019-01-14T00:16:48.825Z,29.4
2019-01-14T00:17:38.548Z,29.5
2019-01-14T00:18:28.872Z,29.5
2019-01-14T00:19:18.630Z,29.6
2019-01-14T00:20:08.000Z,29.4
2019-01-14T00:20:58.747Z,29.3
2019-01-14T00:21:48.808Z,29.1
2019-01-14T00:22:38.025Z,28.9
2019-01-14T00:23:29.258Z,28.8
2019-01-14T00:24:19.012Z,28.6
2019-01-14T00:25:09.237Z,28.5
2019-01-14T00:25:58.837Z,28.3
2019-01-14T00:26:48.887Z,28.2
2019-01-14T00:27:39.540Z,28.1
2019-01-14T00:28:28.979Z,27.8
2019-01-14T00:29:19.594Z,26.8
2019-01-14T00:30:09.124Z,26.3
2019-01-14T00:30:59.170Z,25.9
2019-01-14T00:31:49.769Z,26
2019-01-14T00:32:40.608Z,26.1
2019-01-14T00:33:29.919Z,26.5
2019-01-14T00:34:19.973Z,26.8
2019-01-14T00:35:09.461Z,26.9
2019-01-14T00:35:59.844Z,27.1
2019-01-14T00:36:49.339Z,27.3
2019-01-14T00:37:39.899Z,27.3
2019-01-14T00:38:29.811Z,27.5
2019-01-14T00:39:19.791Z,27.7
2019-01-14T00:40:59.418Z,27.9
2019-01-14T00:41:49.981Z,28.1
2019-01-14T00:42:39.741Z,28.2
2019-01-14T00:43:30.026Z,28.3
2019-01-14T00:44:20.113Z,28.4
2019-01-14T00:45:10.167Z,28.4
2019-01-14T00:46:00.733Z,28.4
2019-01-14T00:46:50.784Z,28.3
2019-01-14T00:47:42.546Z,27.6
2019-01-14T00:48:30.931Z,26.8
2019-01-14T00:49:20.449Z,26
2019-01-14T00:50:10.463Z,25
2019-01-14T00:51:00.788Z,24.1
2019-01-14T00:51:50.290Z,23.8
2019-01-14T00:52:40.641Z,23.9
2019-01-14T00:53:30.975Z,24.6
2019-01-14T00:54:20.523Z,25.3
2019-01-14T00:55:10.565Z,26
2019-01-14T00:56:00.847Z,26.4
2019-01-14T00:56:51.183Z,26.6
2019-01-14T00:57:41.565Z,26.8
2019-01-14T00:58:31.050Z,26.9
2019-01-14T00:59:20.245Z,27.1
2019-01-14T01:00:11.412Z,27.3
2019-01-14T01:01:01.745Z,27.4
2019-01-14T01:01:51.293Z,27.6
2019-01-14T01:02:41.870Z,27.8
2019-01-14T01:03:31.368Z,27.9
2019-01-14T01:04:21.730Z,27.9
2019-01-14T01:05:11.250Z,28.1
2019-01-14T01:06:02.120Z,28.2
2019-01-14T01:06:51.587Z,28.3
2019-01-14T01:07:40.815Z,28.4
2019-01-14T01:08:31.757Z,28.4
2019-01-14T01:09:21.467Z,28.6
2019-01-14T01:10:12.457Z,28.6
2019-01-14T01:11:01.584Z,28.8
2019-01-14T01:11:51.087Z,28.8
2019-01-14T01:12:43.829Z,28.9
2019-01-14T01:13:32.369Z,28.9
2019-01-14T01:14:22.424Z,29
2019-01-14T01:15:12.701Z,29.1
2019-01-14T01:16:02.200Z,29.1
2019-01-14T01:16:52.548Z,29.2
2019-01-14T01:17:42.892Z,29.2
2019-01-14T01:18:32.644Z,29.3
2019-01-14T01:19:22.734Z,29.3
2019-01-14T01:20:11.946Z,29.4
2019-01-14T01:21:01.981Z,29.4
2019-01-14T01:21:52.577Z,29.4
2019-01-14T01:22:42.653Z,29.4
2019-01-14T01:23:32.426Z,29.5
2019-01-14T01:24:23.031Z,29.5
2019-01-14T01:25:13.364Z,29.5
2019-01-14T01:26:02.638Z,29.5
2019-01-14T01:26:53.521Z,29.3
2019-01-14T01:27:43.038Z,29.2
2019-01-14T01:28:33.590Z,29
2019-01-14T01:29:23.356Z,28.9
2019-01-14T01:30:12.713Z,28.7
2019-01-14T01:31:03.273Z,28.6
2019-01-14T01:31:53.065Z,28.4
2019-01-14T01:32:43.143Z,28.3
2019-01-14T01:33:33.453Z,28.1
2019-01-14T01:34:23.505Z,28
2019-01-14T01:35:14.075Z,27.4
2019-01-14T01:36:03.564Z,26.5
2019-01-14T01:36:54.213Z,26.1
2019-01-14T01:37:43.960Z,26
2019-01-14T01:38:34.078Z,26.1
2019-01-14T01:39:24.058Z,26.3
2019-01-14T01:40:13.269Z,26.7
2019-01-14T01:41:05.698Z,26.9
2019-01-14T01:41:54.007Z,26.9
2019-01-14T01:42:44.000Z,27.1
2019-01-14T01:43:34.352Z,27.2
2019-01-14T01:44:24.662Z,27.3
2019-01-14T01:45:16.140Z,27.4
2019-01-14T01:46:04.598Z,27.6
2019-01-14T01:46:54.303Z,27.7
2019-01-14T01:48:34.392Z,27.9
2019-01-14T01:49:24.736Z,28.1
2019-01-14T01:50:14.281Z,28.1
2019-01-14T01:51:04.866Z,28.3
2019-01-14T01:51:54.949Z,28.3
2019-01-14T01:52:45.056Z,28.4
2019-01-14T01:53:35.034Z,28.4
2019-01-14T01:54:24.810Z,28.5
2019-01-14T01:55:14.898Z,28.6
2019-01-14T03:08:53.684Z,28.2
2019-01-14T03:09:43.261Z,28.3
2019-01-14T03:10:33.030Z,28.4
2019-01-14T03:11:23.085Z,28.4
2019-01-14T03:12:13.012Z,28.5
2019-01-14T03:13:03.569Z,28.6
2019-01-14T03:13:53.329Z,28.6
2019-01-14T03:14:43.949Z,28.7
2019-01-14T03:15:33.064Z,28.8
2019-01-14T03:16:23.706Z,28.8
2019-01-14T03:17:14.109Z,28.8
2019-01-14T03:18:03.528Z,28.9
2019-01-14T03:18:53.964Z,28.9
2019-01-14T03:19:43.195Z,28.9
2019-01-14T03:20:33.725Z,29
2019-01-14T03:21:24.023Z,29
2019-01-14T03:22:14.419Z,29.1
2019-01-14T03:23:03.879Z,29.1
2019-01-14T03:23:54.086Z,29.1
2019-01-14T03:24:44.303Z,29.2
2019-01-14T03:25:34.139Z,29.2
2019-01-14T03:26:24.193Z,29.2
2019-01-14T03:27:14.448Z,29.1
2019-01-14T03:28:04.478Z,28.9
2019-01-14T03:28:54.057Z,28.2
2019-01-14T03:29:44.633Z,27.4
2019-01-14T03:30:34.852Z,26.4
2019-01-14T03:31:24.618Z,25.4
2019-01-14T03:32:15.234Z,24.5
2019-01-14T03:33:04.592Z,24.3
2019-01-14T03:33:55.163Z,24.4
2019-01-14T03:34:44.700Z,25
2019-01-14T03:35:34.720Z,25.7
2019-01-14T03:36:24.745Z,26.4
2019-01-14T03:37:15.215Z,26.7
2019-01-14T03:38:05.451Z,26.8
2019-01-14T03:38:54.910Z,26.9
2019-01-14T03:39:45.062Z,27.1
2019-01-14T03:40:35.057Z,27.2
2019-01-14T03:41:25.417Z,27.4
2019-01-14T03:42:15.811Z,27.5
2019-01-14T03:43:05.245Z,27.6
2019-01-14T03:43:55.287Z,27.8
2019-01-14T03:44:44.794Z,27.9
2019-01-14T03:45:35.669Z,28
2019-01-14T03:46:25.713Z,28.1
2019-01-14T03:47:15.844Z,28.1
2019-01-14T03:48:05.899Z,28.3
2019-01-14T03:48:55.968Z,28.3
2019-01-14T03:49:45.414Z,28.4
2019-01-14T03:50:35.008Z,28.5
2019-01-14T03:51:25.790Z,28.6
2019-01-14T03:52:16.155Z,28.6
2019-01-14T03:53:06.007Z,28.7
2019-01-14T03:53:56.004Z,28.8
2019-01-14T03:54:46.269Z,28.8
2019-01-14T03:55:36.130Z,28.9
2019-01-14T03:56:26.671Z,28.9
2019-01-14T03:57:16.494Z,28.9
2019-01-14T03:58:06.059Z,29
2019-01-14T03:58:56.282Z,29.1
2019-01-14T03:59:46.449Z,29.1
2019-01-14T04:00:36.688Z,29.1
2019-01-14T04:01:26.163Z,29.1
2019-01-14T04:02:17.104Z,29.2
2019-01-14T04:03:06.513Z,29.2
2019-01-14T04:03:57.221Z,29.3
2019-01-14T04:04:47.031Z,29.3
2019-01-14T04:05:37.048Z,29.3
2019-01-14T04:06:27.081Z,29.3
2019-01-14T04:07:23.174Z,29.3
2019-01-14T04:08:07.168Z,29.4
2019-01-14T04:08:57.263Z,29.4
2019-01-14T04:09:47.309Z,29.4
2019-01-14T04:10:37.108Z,29.4
2019-01-14T04:11:26.873Z,29.4
2019-01-14T04:12:17.215Z,29.4
2019-01-14T04:13:07.538Z,29.5
2019-01-14T04:13:57.361Z,29.5
2019-01-14T04:14:46.796Z,29.5
2019-01-14T04:15:37.698Z,29.4
2019-01-14T04:16:27.180Z,29.3
2019-01-14T04:17:17.611Z,29.2
2019-01-14T04:18:07.872Z,29
2019-01-14T04:18:57.113Z,28.8
2019-01-14T04:19:47.162Z,28.7
2019-01-14T04:20:37.490Z,28.6
2019-01-14T04:21:27.880Z,28.4
2019-01-14T04:22:17.578Z,28.3
2019-01-14T04:23:09.672Z,28.1
2019-01-14T04:23:57.782Z,27.9
2019-01-14T04:24:48.600Z,27.3
2019-01-14T04:25:38.620Z,26.5
2019-01-14T04:26:27.875Z,26.1
2019-01-14T04:27:18.497Z,26.1
2019-01-14T04:28:08.042Z,26.1
2019-01-14T04:28:58.108Z,26.4
2019-01-14T04:29:48.664Z,26.9
2019-01-14T04:30:38.266Z,26.9
2019-01-14T04:31:28.620Z,27.1
2019-01-14T04:32:18.859Z,27.1
2019-01-14T04:33:08.855Z,27.3
2019-01-14T04:33:59.244Z,27.4
2019-01-14T04:34:49.342Z,27.6
2019-01-14T04:35:38.206Z,27.7
2019-01-14T04:37:26.956Z,27.9
2019-01-14T04:38:08.989Z,28
2019-01-14T04:38:58.989Z,28.1
2019-01-14T04:39:49.634Z,28.2
2019-01-14T04:40:39.466Z,28.3
2019-01-14T04:41:29.488Z,28.4
2019-01-14T04:42:19.595Z,28.4
2019-01-14T04:43:09.458Z,28.5
2019-01-14T04:43:59.331Z,28.6
2019-01-14T04:44:49.643Z,28.6
2019-01-14T04:45:39.773Z,28.6
2019-01-14T04:46:28.946Z,28.7
2019-01-14T04:47:18.988Z,28.7
2019-01-14T04:48:09.700Z,28.4
2019-01-14T04:49:00.302Z,27.6
2019-01-14T04:49:50.030Z,26.9
2019-01-14T04:50:39.625Z,26
2019-01-14T04:51:29.826Z,25
2019-01-14T04:52:19.914Z,24.1
2019-01-14T04:53:09.982Z,23.8
2019-01-14T04:54:00.343Z,23.9
2019-01-14T04:54:50.613Z,24.4
2019-01-14T04:55:39.855Z,25.2
2019-01-14T04:56:30.508Z,25.9
2019-01-14T04:57:19.708Z,26.4
2019-01-14T04:58:10.395Z,26.6
2019-01-14T04:59:00.916Z,26.8
2019-01-14T04:59:50.191Z,26.9
2019-01-14T05:00:40.745Z,26.9
2019-01-14T05:01:31.090Z,27.1
2019-01-14T05:02:21.002Z,27.3
2019-01-14T05:03:10.682Z,27.4
2019-01-14T05:04:00.988Z,27.5
2019-01-14T05:04:50.742Z,27.6
2019-01-14T05:05:40.812Z,27.8
2019-01-14T05:06:29.875Z,27.9
2019-01-14T05:07:20.902Z,27.9
2019-01-14T05:08:11.025Z,28.1
2019-01-14T05:09:00.749Z,28.1
2019-01-14T05:09:50.549Z,28.2
2019-01-14T05:10:41.228Z,28.3
2019-01-14T05:11:31.519Z,28.4
2019-01-14T05:12:21.035Z,28.4
2019-01-14T05:13:11.602Z,28.4
2019-01-14T05:14:01.657Z,28.2
2019-01-14T05:14:50.638Z,28.1
2019-01-14T05:15:43.499Z,27.9
2019-01-14T05:16:31.804Z,27.8
2019-01-14T05:17:21.040Z,27.6
2019-01-14T05:18:11.930Z,27.5
2019-01-14T05:19:01.432Z,27.4
2019-01-14T05:19:52.309Z,27.3
2019-01-14T05:20:41.507Z,27.1
2019-01-14T05:21:31.974Z,26.9
2019-01-14T05:22:22.002Z,26.8
2019-01-14T05:23:11.042Z,26.7
2019-01-14T05:24:01.833Z,26.5
2019-01-14T05:24:51.159Z,26.4
2019-01-14T05:25:40.925Z,26.3
2019-01-14T05:26:31.777Z,26.2
2019-01-14T05:27:22.340Z,26
2019-01-14T05:28:11.674Z,25.9
2019-01-14T05:29:01.365Z,25.8
2019-01-14T05:29:51.918Z,25.7
2019-01-14T05:30:41.699Z,25.6
2019-01-14T05:31:31.771Z,25.5
2019-01-14T05:32:22.904Z,25.4
2019-01-14T05:33:11.999Z,25.3
2019-01-14T05:34:02.705Z,25.1
2019-01-14T05:34:52.366Z,25
2019-01-14T05:35:42.829Z,24.9
2019-01-14T05:36:33.251Z,24.8
2019-01-14T05:37:23.203Z,24.7
2019-01-14T05:38:13.257Z,24.6
2019-01-14T05:39:03.309Z,24.4
2019-01-14T05:39:53.619Z,24.4
2019-01-14T05:40:43.521Z,24.3
2019-01-14T05:41:32.926Z,24.1
2019-01-14T05:42:23.058Z,24
2019-01-14T05:43:13.561Z,23.9
2019-01-14T05:44:02.865Z,23.8
2019-01-14T05:44:53.724Z,23.7
2019-01-14T05:45:43.508Z,23.6
2019-01-14T05:46:34.071Z,23.4
2019-01-14T05:47:23.088Z,23.4
2019-01-14T05:48:14.293Z,23.3
2019-01-14T05:49:04.245Z,23.1
2019-01-14T05:49:53.745Z,23.1
2019-01-14T05:50:43.890Z,22.9
2019-01-14T05:51:34.120Z,22.8
2019-01-14T05:52:24.217Z,22.8
2019-01-14T05:53:14.247Z,22.6
2019-01-14T05:54:04.577Z,22.5
2019-01-14T05:54:54.362Z,22.4
2019-01-14T05:55:44.717Z,22.3
2019-01-14T05:56:33.635Z,22.3
2019-01-14T05:57:24.291Z,22.1
2019-01-14T05:58:14.335Z,22
2019-01-14T05:59:04.346Z,21.9
2019-01-14T05:59:54.470Z,21.9
2019-01-14T06:00:44.533Z,21.8
2019-01-14T06:01:34.560Z,21.6
2019-01-14T06:02:24.857Z,21.6
2019-01-14T06:03:15.263Z,21.4
2019-01-14T06:04:05.305Z,21.4
2019-01-14T06:06:53.272Z,21.1
2019-01-14T06:07:50.664Z,20.9
2019-01-14T06:08:32.672Z,20.9
2019-01-14T06:09:22.745Z,20.8
2019-01-14T06:10:13.591Z,20.8
2019-01-14T06:11:03.571Z,20.6
2019-01-14T06:11:53.650Z,20.5
2019-01-14T06:12:43.782Z,20.4
2019-01-14T06:13:33.813Z,20.4
2019-01-14T06:14:23.807Z,20.3
2019-01-14T06:15:14.012Z,20.2
2019-01-14T06:16:03.231Z,20.1
2019-01-14T06:16:53.277Z,20.1
2019-01-14T06:17:43.253Z,19.9
2019-01-14T06:18:33.653Z,19.9
2019-01-14T06:19:23.654Z,19.8
2019-01-14T06:20:12.863Z,19.7
2019-01-14T06:21:03.503Z,19.6
2019-01-14T06:21:53.618Z,19.5
2019-01-14T06:22:43.357Z,19.4
2019-01-14T06:23:33.928Z,19.3
2019-01-14T06:24:23.161Z,19.2
2019-01-14T06:25:13.538Z,19.1
2019-01-14T06:26:04.170Z,19.1
2019-01-14T06:26:53.591Z,19
2019-01-14T06:27:43.981Z,18.9
2019-01-14T06:28:33.460Z,18.9
2019-01-14T06:29:24.086Z,18.8
2019-01-14T06:30:14.368Z,18.8
2019-01-14T06:31:03.386Z,18.6
2019-01-14T06:31:53.738Z,18.6
2019-01-14T06:32:43.823Z,18.6
2019-01-14T06:33:34.125Z,18.4
2019-01-14T06:34:24.023Z,18.4
2019-01-14T06:35:14.227Z,18.3
2019-01-14T06:36:06.081Z,18.3
2019-01-14T06:36:53.821Z,18.3
2019-01-14T06:37:44.097Z,18.1
2019-01-14T06:38:34.008Z,18.1
2019-01-14T06:39:24.700Z,18
2019-01-14T06:40:14.997Z,17.9
2019-01-14T06:41:05.109Z,17.9
2019-01-14T06:41:55.326Z,17.8
2019-01-14T06:42:45.272Z,17.8
2019-01-14T06:43:35.439Z,17.7
2019-01-14T06:44:26.007Z,17.7
2019-01-14T06:45:15.377Z,17.6
2019-01-14T06:46:05.922Z,17.6
2019-01-14T06:46:55.200Z,17.4
2019-01-14T06:47:45.827Z,17.4
2019-01-14T06:48:37.031Z,17.4
2019-01-14T06:49:24.904Z,17.3
2019-01-14T06:50:15.443Z,17.3
2019-01-14T06:51:05.784Z,17.2
2019-01-14T06:51:55.589Z,17.1
2019-01-14T06:52:45.614Z,17.1
2019-01-14T06:53:35.954Z,17.1
2019-01-14T06:55:15.348Z,16.9
2019-01-14T06:56:06.122Z,16.9
2019-01-14T06:56:56.177Z,16.8
2019-01-14T06:57:46.289Z,16.8
2019-01-14T06:58:35.992Z,16.7
2019-01-14T06:59:26.078Z,16.7
2019-01-14T07:00:15.664Z,16.6
2019-01-14T07:01:06.501Z,16.6
2019-01-14T07:01:56.499Z,16.5
2019-01-14T07:02:45.765Z,16.5
2019-01-14T07:03:36.135Z,16.4
2019-01-14T07:04:26.149Z,16.3
2019-01-14T07:06:52.809Z,16.1
2019-01-14T07:07:42.337Z,16
2019-01-14T07:08:32.397Z,16
2019-01-14T07:09:22.954Z,15.9
2019-01-14T07:10:12.734Z,15.9
2019-01-14T07:11:02.494Z,15.9
2019-01-14T07:11:52.669Z,15.8
2019-01-14T07:12:43.164Z,15.8
2019-01-14T07:13:32.964Z,15.8
2019-01-14T07:14:22.992Z,15.7
2019-01-14T07:15:13.063Z,15.7
2019-01-14T07:16:03.376Z,15.6
2019-01-14T07:16:53.231Z,15.6
2019-01-14T07:17:42.709Z,15.6
2019-01-14T07:18:33.321Z,15.5
2019-01-14T07:19:23.129Z,15.5
2019-01-14T07:20:13.664Z,15.4
2019-01-14T07:21:03.254Z,15.4
2019-01-14T07:21:53.224Z,15.3
2019-01-14T07:22:43.606Z,15.3
2019-01-14T07:23:33.841Z,15.3
2019-01-14T07:24:23.899Z,15.2
2019-01-14T07:25:14.481Z,15.1
2019-01-14T07:26:04.555Z,15.1
2019-01-14T07:26:54.596Z,15.1
2019-01-14T07:27:43.916Z,15.1
2019-01-14T07:28:34.753Z,15
2019-01-14T07:29:24.324Z,15
2019-01-14T07:30:13.787Z,14.9
2019-01-14T07:31:04.068Z,14.9
2019-01-14T07:31:54.181Z,14.9
2019-01-14T07:32:44.489Z,14.8
2019-01-14T07:33:34.758Z,14.8
2019-01-14T07:34:24.893Z,14.8
2019-01-14T07:35:14.687Z,14.7
2019-01-14T07:36:05.223Z,14.7
2019-01-14T07:36:54.995Z,14.6
2019-01-14T07:37:44.461Z,14.6
2019-01-14T07:38:35.418Z,14.6
2019-01-14T07:39:24.315Z,14.6
2019-01-14T07:40:15.505Z,14.5
2019-01-14T07:41:04.987Z,14.5
2019-01-14T07:41:55.595Z,14.4
2019-01-14T07:42:45.369Z,14.4
2019-01-14T07:43:35.429Z,14.4
2019-01-14T07:44:25.817Z,14.4
2019-01-14T07:45:15.297Z,14.3
2019-01-14T07:46:05.395Z,14.3
2019-01-14T07:46:55.707Z,14.3
2019-01-14T07:47:45.235Z,14.2
2019-01-14T07:48:35.479Z,14.2
2019-01-14T07:49:26.081Z,14.2
2019-01-14T07:50:16.177Z,14.1
2019-01-14T07:51:05.387Z,14.1
2019-01-14T07:51:56.039Z,14.1
2019-01-14T07:52:45.796Z,14.1
2019-01-14T07:53:35.826Z,14.1
2019-01-14T07:54:26.476Z,14
2019-01-14T07:55:16.609Z,14
2019-01-14T07:56:05.214Z,13.9
2019-01-14T07:56:56.052Z,13.9
2019-01-14T07:57:46.407Z,13.9
2019-01-14T07:58:36.759Z,13.8
2019-01-14T07:59:26.803Z,13.8
2019-01-14T08:00:16.601Z,13.8
2019-01-14T08:01:06.409Z,13.8
2019-01-14T08:01:56.397Z,13.8
2019-01-14T08:02:47.018Z,13.7
2019-01-14T08:03:37.089Z,13.7
2019-01-14T08:04:26.281Z,13.6
2019-01-14T08:05:16.666Z,13.7
2019-01-14T08:06:07.273Z,13.6
2019-01-14T08:06:57.285Z,13.6
2019-01-14T08:07:47.109Z,13.6
2019-01-14T08:08:37.378Z,13.6
2019-01-14T08:09:27.518Z,13.5
2019-01-14T08:10:17.295Z,13.5
2019-01-14T08:11:06.762Z,13.4
2019-01-14T08:11:57.630Z,13.4
2019-01-14T08:12:47.765Z,13.4
2019-01-14T08:13:37.140Z,13.4
2019-01-14T08:14:27.552Z,13.4
2019-01-14T08:15:17.312Z,13.4
2019-01-14T08:16:07.666Z,13.3
2019-01-14T08:16:58.012Z,13.3
2019-01-14T08:17:47.725Z,13.3
2019-01-14T08:18:38.087Z,13.3
2019-01-14T08:19:28.987Z,13.3
2019-01-14T08:20:17.945Z,13.2
2019-01-14T08:21:08.224Z,13.2
2019-01-14T08:21:57.988Z,13.2
2019-01-14T08:22:48.367Z,13.1
2019-01-14T08:23:38.369Z,13.1
2019-01-14T08:24:28.500Z,13.1
2019-01-14T08:25:18.222Z,13.1
2019-01-14T08:26:08.329Z,13.1
2019-01-14T08:26:58.592Z,13.1
2019-01-14T08:27:47.650Z,13
2019-01-14T08:28:38.180Z,13
2019-01-14T08:29:28.504Z,13
2019-01-14T08:30:18.953Z,12.9
2019-01-14T08:31:09.239Z,12.9
2019-01-14T08:31:58.946Z,12.9
2019-01-14T08:32:48.530Z,12.9
2019-01-14T08:33:39.099Z,12.9
2019-01-14T08:34:29.114Z,12.9
2019-01-14T08:35:19.189Z,12.8
2019-01-14T08:36:08.713Z,12.8
2019-01-14T08:37:06.198Z,12.8
2019-01-14T08:37:49.381Z,12.8
2019-01-14T08:38:39.384Z,12.8
2019-01-14T08:39:29.251Z,12.8
2019-01-14T08:40:18.416Z,12.8
2019-01-14T08:41:09.004Z,12.8
2019-01-14T08:41:59.359Z,12.7
2019-01-14T08:42:49.404Z,12.7
2019-01-14T08:43:39.771Z,12.7
2019-01-14T08:44:29.789Z,12.6
2019-01-14T08:45:19.596Z,12.6
2019-01-14T08:46:09.653Z,12.6
2019-01-14T08:46:59.734Z,12.6
2019-01-14T08:47:50.046Z,12.6
2019-01-14T08:49:52.718Z,12.6
2019-01-14T08:50:03.873Z,12.6
2019-01-14T08:50:54.175Z,12.5
2019-01-14T08:51:44.015Z,12.5
2019-01-14T08:52:33.138Z,12.5
2019-01-14T08:53:24.631Z,12.5
2019-01-14T08:54:13.945Z,12.4
2019-01-14T08:55:04.353Z,12.4
2019-01-14T08:55:54.040Z,12.4
2019-01-14T08:56:43.550Z,12.4
2019-01-14T08:57:34.473Z,12.4
2019-01-14T08:58:24.211Z,12.4
2019-01-14T08:59:14.337Z,12.4
2019-01-14T09:00:04.842Z,12.4
2019-01-14T09:00:54.390Z,12.4
2019-01-14T09:01:44.545Z,12.3
2019-01-14T09:02:34.704Z,12.3
2019-01-14T09:03:24.245Z,12.3
2019-01-14T09:04:14.302Z,12.3
2019-01-14T09:05:04.686Z,12.3
2019-01-14T09:05:55.027Z,12.3
2019-01-14T09:06:44.479Z,12.3
2019-01-14T09:07:34.322Z,12.3
2019-01-14T09:08:31.732Z,12.2
2019-01-14T09:09:14.912Z,12.2
2019-01-14T09:10:05.397Z,12.2
2019-01-14T09:10:54.774Z,12.2
2019-01-14T09:11:44.824Z,12.2
2019-01-14T09:12:34.902Z,12.2
2019-01-14T09:13:24.652Z,12.2
2019-01-14T09:14:15.536Z,12.1
2019-01-14T09:15:05.343Z,12.1
2019-01-14T09:15:55.879Z,12.1
2019-01-14T09:16:45.183Z,12.1
2019-01-14T09:17:35.205Z,12.1
2019-01-14T09:18:24.971Z,12.1
2019-01-14T09:19:15.324Z,12.1
2019-01-14T09:20:06.381Z,12.1
2019-01-14T09:20:55.481Z,12.1
2019-01-14T09:21:46.108Z,12.1
2019-01-14T09:22:35.266Z,12
2019-01-14T09:23:26.356Z,12
2019-01-14T09:24:16.035Z,12
2019-01-14T09:25:06.831Z,12
2019-01-14T09:26:03.003Z,12
2019-01-14T09:26:48.446Z,12
2019-01-14T09:27:36.177Z,12
2019-01-14T09:28:25.086Z,11.9
2019-01-14T09:29:16.541Z,12
2019-01-14T09:30:05.900Z,11.9
2019-01-14T09:30:56.128Z,11.9
2019-01-14T09:31:46.989Z,12
2019-01-14T09:32:36.203Z,11.9
2019-01-14T09:33:26.853Z,11.9
2019-01-14T09:34:16.818Z,11.9
2019-01-14T09:35:07.235Z,11.9
2019-01-14T09:35:57.247Z,11.9
2019-01-14T09:36:47.290Z,11.9
2019-01-14T09:37:37.107Z,11.9
2019-01-14T09:38:26.921Z,11.9
2019-01-14T09:39:17.035Z,11.9
2019-01-14T09:40:07.592Z,11.9
2019-01-14T09:40:57.878Z,11.9
2019-01-14T09:41:47.042Z,11.9
2019-01-14T09:42:37.652Z,11.9
2019-01-14T09:43:27.995Z,11.9
2019-01-14T09:44:17.807Z,11.9
2019-01-14T09:45:08.097Z,11.9
2019-01-14T09:45:57.397Z,11.9
2019-01-14T09:46:47.926Z,11.9
2019-01-14T09:47:38.269Z,11.9
2019-01-14T09:48:28.060Z,11.9
2019-01-14T09:49:18.147Z,11.9
2019-01-14T09:50:08.207Z,11.9
2019-01-14T09:50:58.202Z,11.9
2019-01-14T09:51:48.567Z,11.9
2019-01-14T09:52:38.459Z,11.9
2019-01-14T09:53:28.687Z,11.8
2019-01-14T09:54:17.961Z,11.9
2019-01-14T09:55:13.943Z,11.9
2019-01-14T09:55:58.544Z,11.8
2019-01-14T09:56:48.879Z,11.9
2019-01-14T09:57:40.186Z,11.8
2019-01-14T09:58:28.459Z,11.8
2019-01-14T09:59:19.047Z,11.8
2019-01-14T10:00:09.229Z,11.9
2019-01-14T10:00:59.256Z,11.8
2019-01-14T10:01:48.974Z,11.8
2019-01-14T10:02:37.893Z,11.8
2019-01-14T10:03:28.303Z,11.8
2019-01-14T10:04:17.766Z,11.8
2019-01-14T10:05:09.284Z,11.8
2019-01-14T10:07:53.083Z,11.8
2019-01-14T10:08:49.897Z,11.8
2019-01-14T10:09:32.383Z,11.9
2019-01-14T10:10:23.116Z,11.8
2019-01-14T10:11:12.478Z,11.8
2019-01-14T10:12:03.087Z,11.8
2019-01-14T10:12:53.157Z,11.8
2019-01-14T10:13:43.490Z,11.8
2019-01-14T10:14:33.288Z,11.8
2019-01-14T10:15:23.413Z,11.8
2019-01-14T10:16:13.637Z,11.9
2019-01-14T10:17:03.120Z,11.8
2019-01-14T10:17:53.522Z,11.8
2019-01-14T10:18:43.858Z,11.8
2019-01-14T10:19:33.909Z,11.8
2019-01-14T10:20:23.677Z,11.8
2019-01-14T10:21:13.443Z,11.8
2019-01-14T10:22:04.032Z,11.8
2019-01-14T10:22:53.872Z,11.8
2019-01-14T10:23:44.144Z,11.8
2019-01-14T10:24:33.992Z,11.8
2019-01-14T10:25:24.247Z,11.8
2019-01-14T10:26:14.360Z,11.8
2019-01-14T10:27:03.539Z,11.8
2019-01-14T10:27:53.674Z,11.8
2019-01-14T10:28:44.249Z,11.8
2019-01-14T10:29:34.587Z,11.8
2019-01-14T10:30:23.824Z,11.9
2019-01-14T10:31:14.654Z,11.8
2019-01-14T10:32:04.424Z,11.8
2019-01-14T10:32:54.216Z,11.8
2019-01-14T10:33:44.573Z,11.8
2019-01-14T10:34:34.153Z,11.8
2019-01-14T10:35:23.625Z,11.8
2019-01-14T10:36:14.695Z,11.8
2019-01-14T10:37:04.473Z,11.8
2019-01-14T10:37:54.844Z,11.9
2019-01-14T10:38:51.193Z,11.8
2019-01-14T10:39:34.740Z,11.8
2019-01-14T10:40:25.175Z,11.8
2019-01-14T10:41:14.540Z,11.9
2019-01-14T10:42:09.603Z,11.8
2019-01-14T10:42:55.135Z,11.8
2019-01-14T10:43:45.280Z,11.8
2019-01-14T10:44:35.282Z,11.8
2019-01-14T10:45:24.854Z,11.8
2019-01-14T10:46:15.087Z,11.9
2019-01-14T10:47:05.212Z,11.8
2019-01-14T10:47:55.534Z,11.9
2019-01-14T10:48:45.684Z,11.9
2019-01-14T10:49:35.334Z,11.8
2019-01-14T10:50:25.454Z,11.8
2019-01-14T10:51:14.604Z,11.8
2019-01-14T10:52:05.214Z,11.9
2019-01-14T10:52:55.449Z,11.8
2019-01-14T10:53:45.862Z,11.8
2019-01-14T10:54:36.202Z,11.9
2019-01-14T10:55:26.020Z,11.9
2019-01-14T10:56:15.012Z,11.8
2019-01-14T10:57:05.684Z,11.9
2019-01-14T10:57:55.644Z,11.9
2019-01-14T10:58:45.200Z,11.9
2019-01-14T10:59:35.304Z,11.8
2019-01-14T11:00:26.127Z,11.8
2019-01-14T11:01:16.226Z,11.9
2019-01-14T11:02:05.951Z,11.9
2019-01-14T11:02:57.641Z,11.9
2019-01-14T11:03:46.341Z,11.8
2019-01-14T11:04:36.399Z,11.9
2019-01-14T11:05:26.206Z,11.9
2019-01-14T11:06:16.528Z,11.8
2019-01-14T11:07:05.543Z,11.9
2019-01-14T11:07:56.170Z,11.9
2019-01-14T11:08:46.893Z,11.9
2019-01-14T11:09:37.249Z,11.9
2019-01-14T11:10:27.285Z,11.9
2019-01-14T11:11:16.303Z,11.9
2019-01-14T11:12:06.358Z,11.8
2019-01-14T11:12:56.738Z,11.9
2019-01-14T11:13:46.111Z,11.9
2019-01-14T11:14:39.259Z,11.9
2019-01-14T11:15:27.375Z,11.9
2019-01-14T11:16:16.557Z,11.9
2019-01-14T11:17:07.235Z,11.9
2019-01-14T11:17:56.828Z,11.9
2019-01-14T11:18:47.273Z,11.9
2019-01-14T11:19:37.604Z,11.9
2019-01-14T11:20:27.485Z,11.9
2019-01-14T11:21:22.188Z,11.9
2019-01-14T11:22:07.506Z,11.9
2019-01-14T11:22:57.580Z,11.9
2019-01-14T11:23:48.168Z,11.9
2019-01-14T11:24:37.668Z,11.9
2019-01-14T11:25:28.029Z,11.9
2019-01-14T11:26:18.062Z,11.9
2019-01-14T11:27:08.382Z,11.9
2019-01-14T11:27:58.210Z,11.9
2019-01-14T11:28:48.257Z,11.9
2019-01-14T11:29:38.260Z,11.9
2019-01-14T11:30:28.392Z,11.9
2019-01-14T11:31:18.399Z,11.9
2019-01-14T11:32:08.769Z,11.9
2019-01-14T11:32:58.812Z,11.9
2019-01-14T11:33:48.697Z,11.9
2019-01-14T11:34:38.894Z,11.9
2019-01-14T11:35:29.029Z,11.9
2019-01-14T11:36:18.882Z,11.9
2019-01-14T11:37:08.834Z,11.9
2019-01-14T11:37:59.144Z,11.9
2019-01-14T11:38:49.188Z,11.9
2019-01-14T11:39:38.959Z,11.9
2019-01-14T11:40:29.109Z,11.9
2019-01-14T11:41:19.426Z,11.9
2019-01-14T11:42:09.159Z,11.9
2019-01-14T11:42:58.924Z,11.9
2019-01-14T11:43:49.537Z,11.9
2019-01-14T11:44:39.586Z,11.9
2019-01-14T11:45:29.084Z,11.9
2019-01-14T11:46:19.136Z,11.9
2019-01-14T11:47:09.336Z,11.9
2019-01-14T11:47:58.961Z,11.9
2019-01-14T11:48:49.294Z,11.9
2019-01-14T11:49:39.919Z,11.9
2019-01-14T11:50:29.456Z,11.9
2019-01-14T11:51:20.041Z,11.9
2019-01-14T11:52:09.831Z,11.9
2019-01-14T11:53:00.177Z,11.9
2019-01-14T11:53:49.340Z,11.9
2019-01-14T11:54:39.138Z,11.9
2019-01-14T11:55:29.498Z,11.9
2019-01-14T11:56:19.516Z,11.9
2019-01-14T11:57:11.848Z,11.9
2019-01-14T11:58:00.490Z,11.9
2019-01-14T11:58:50.275Z,11.9
2019-01-14T11:59:40.135Z,11.9
2019-01-14T12:00:38.106Z,11.9
2019-01-14T12:01:20.473Z,11.9
2019-01-14T12:02:10.193Z,11.9
2019-01-14T12:03:01.083Z,11.9
2019-01-14T12:03:50.335Z,11.9
2019-01-14T12:04:40.370Z,11.9
2019-01-14T12:05:31.037Z,11.9
2019-01-14T12:07:53.090Z,11.9
2019-01-14T12:08:58.191Z,11.9
2019-01-14T12:09:32.327Z,11.9
2019-01-14T12:10:22.642Z,11.9
2019-01-14T12:11:17.072Z,11.9
2019-01-14T12:12:01.906Z,11.9
2019-01-14T12:12:51.970Z,11.9
2019-01-14T12:13:42.782Z,11.9
2019-01-14T12:14:32.307Z,11.9
2019-01-14T12:15:22.342Z,11.9
2019-01-14T12:16:12.137Z,11.9
2019-01-14T12:17:02.976Z,11.9
2019-01-14T12:17:52.474Z,11.9
2019-01-14T12:18:43.352Z,11.9
2019-01-14T12:19:33.202Z,11.9
2019-01-14T12:20:22.927Z,12
2019-01-14T12:21:13.039Z,12
2019-01-14T12:22:02.794Z,11.9
2019-01-14T12:22:53.481Z,12
2019-01-14T12:23:42.871Z,12
2019-01-14T12:24:33.776Z,12
2019-01-14T12:25:25.317Z,12
2019-01-14T12:26:13.599Z,11.9
2019-01-14T12:27:03.164Z,11.9
2019-01-14T12:27:53.454Z,12
2019-01-14T12:28:43.473Z,12
2019-01-14T12:29:33.548Z,12
2019-01-14T12:30:23.929Z,12
2019-01-14T12:31:14.216Z,12
2019-01-14T12:32:03.433Z,12
2019-01-14T12:32:53.772Z,12